sensor_id;sensor_type;location;lat;lon;timestamp;temperature;humidity
9730;DHT22;4904;49.152;11.004;2023-02-28T00:00:09;-0.70;99.90
9730;DHT22;4904;49.152;11.004;2023-02-28T00:02:37;-0.80;99.90
9730;DHT22;4904;49.152;11.004;2023-02-28T00:05:05;-0.90;99.90
9730;DHT22;4904;49.152;11.004;2023-02-28T00:07:32;-0.90;99.90
9730;DHT22;4904;49.152;11.004;2023-02-28T00:10:01;-1.00;99.90
9730;DHT22;4904;49.152;11.004;2023-02-28T00:12:28;-1.00;99.90
9730;DHT22;4904;49.152;11.004;2023-02-28T00:14:55;-1.00;99.90
9730;DHT22;4904;49.152;11.004;2023-02-28T00:17:22;-1.00;99.90
9730;DHT22;4904;49.152;11.004;2023-02-28T00:19:49;-1.00;99.90
9730;DHT22;4904;49.152;11.004;2023-02-28T00:22:16;-1.00;99.90
9730;DHT22;4904;49.152;11.004;2023-02-28T00:24:43;-1.10;99.90
9730;DHT22;4904;49.152;11.004;2023-02-28T00:27:12;-1.10;99.90
9730;DHT22;4904;49.152;11.004;2023-02-28T00:29:39;-1.10;99.90
9730;DHT22;4904;49.152;11.004;2023-02-28T00:32:07;-1.20;99.90
9730;DHT22;4904;49.152;11.004;2023-02-28T00:34:34;-1.30;99.90
9730;DHT22;4904;49.152;11.004;2023-02-28T00:37:04;-1.30;99.90
9730;DHT22;4904;49.152;11.004;2023-02-28T00:39:32;-1.30;99.90
9730;DHT22;4904;49.152;11.004;2023-02-28T00:41:59;-1.30;99.90
9730;DHT22;4904;49.152;11.004;2023-02-28T00:44:28;-1.20;99.90
9730;DHT22;4904;49.152;11.004;2023-02-28T00:46:55;-1.30;99.90
9730;DHT22;4904;49.152;11.004;2023-02-28T00:49:23;-1.30;99.90
9730;DHT22;4904;49.152;11.004;2023-02-28T00:51:50;-1.30;99.90
9730;DHT22;4904;49.152;11.004;2023-02-28T00:54:18;-1.40;99.90
9730;DHT22;4904;49.152;11.004;2023-02-28T00:56:45;-1.30;99.90
9730;DHT22;4904;49.152;11.004;2023-02-28T00:59:12;-1.40;99.90
9730;DHT22;4904;49.152;11.004;2023-02-28T01:01:41;-1.40;99.90
9730;DHT22;4904;49.152;11.004;2023-02-28T01:04:08;-1.40;99.90
9730;DHT22;4904;49.152;11.004;2023-02-28T01:06:35;-1.40;99.90
9730;DHT22;4904;49.152;11.004;2023-02-28T01:09:03;-1.50;99.90
9730;DHT22;4904;49.152;11.004;2023-02-28T01:11:31;-1.50;99.90
9730;DHT22;4904;49.152;11.004;2023-02-28T01:13:59;-1.50;99.90
9730;DHT22;4904;49.152;11.004;2023-02-28T01:16:26;-1.50;99.90
9730;DHT22;4904;49.152;11.004;2023-02-28T01:18:55;-1.60;99.90
9730;DHT22;4904;49.152;11.004;2023-02-28T01:21:22;-1.60;99.90
9730;DHT22;4904;49.152;11.004;2023-02-28T01:23:49;-1.60;99.90
9730;DHT22;4904;49.152;11.004;2023-02-28T01:26:18;-1.60;99.90
9730;DHT22;4904;49.152;11.004;2023-02-28T01:28:45;-1.60;99.90
9730;DHT22;4904;49.152;11.004;2023-02-28T01:31:13;-1.70;99.90
9730;DHT22;4904;49.152;11.004;2023-02-28T01:33:40;-1.70;99.90
9730;DHT22;4904;49.152;11.004;2023-02-28T01:36:11;-1.60;99.90
9730;DHT22;4904;49.152;11.004;2023-02-28T01:38:38;-1.70;99.90
9730;DHT22;4904;49.152;11.004;2023-02-28T01:41:06;-1.70;99.90
9730;DHT22;4904;49.152;11.004;2023-02-28T01:43:54;-1.70;99.90
9730;DHT22;4904;49.152;11.004;2023-02-28T01:46:22;-1.70;99.90
9730;DHT22;4904;49.152;11.004;2023-02-28T01:48:51;-1.70;99.90
9730;DHT22;4904;49.152;11.004;2023-02-28T01:51:22;-1.70;99.90
9730;DHT22;4904;49.152;11.004;2023-02-28T01:53:54;-1.80;99.90
9730;DHT22;4904;49.152;11.004;2023-02-28T01:56:25;-1.80;99.90
9730;DHT22;4904;49.152;11.004;2023-02-28T01:58:54;-1.80;99.90
9730;DHT22;4904;49.152;11.004;2023-02-28T02:01:22;-1.80;99.90
9730;DHT22;4904;49.152;11.004;2023-02-28T02:03:53;-1.70;99.90
9730;DHT22;4904;49.152;11.004;2023-02-28T02:06:22;-1.70;99.90
9730;DHT22;4904;49.152;11.004;2023-02-28T02:08:49;-1.70;99.90
9730;DHT22;4904;49.152;11.004;2023-02-28T02:11:19;-1.60;99.90
9730;DHT22;4904;49.152;11.004;2023-02-28T02:16:47;-1.70;99.90
9730;DHT22;4904;49.152;11.004;2023-02-28T02:19:35;-1.80;99.90
9730;DHT22;4904;49.152;11.004;2023-02-28T02:22:24;-1.80;99.90
9730;DHT22;4904;49.152;11.004;2023-02-28T02:25:15;-1.90;99.90
9730;DHT22;4904;49.152;11.004;2023-02-28T02:30:58;-1.90;99.90
9730;DHT22;4904;49.152;11.004;2023-02-28T02:34:07;-1.80;99.90
9730;DHT22;4904;49.152;11.004;2023-02-28T02:36:39;-1.90;99.90
9730;DHT22;4904;49.152;11.004;2023-02-28T02:39:15;-2.00;99.90
9730;DHT22;4904;49.152;11.004;2023-02-28T02:41:46;-2.00;99.90
9730;DHT22;4904;49.152;11.004;2023-02-28T02:44:20;-2.00;99.90
9730;DHT22;4904;49.152;11.004;2023-02-28T02:46:51;-1.90;99.90
9730;DHT22;4904;49.152;11.004;2023-02-28T02:49:26;-2.00;99.90
9730;DHT22;4904;49.152;11.004;2023-02-28T02:51:56;-2.00;99.90
9730;DHT22;4904;49.152;11.004;2023-02-28T02:54:28;-1.90;99.90
9730;DHT22;4904;49.152;11.004;2023-02-28T02:56:58;-1.90;99.90
9730;DHT22;4904;49.152;11.004;2023-02-28T02:59:27;-1.80;99.90
9730;DHT22;4904;49.152;11.004;2023-02-28T03:01:57;-1.80;99.90
9730;DHT22;4904;49.152;11.004;2023-02-28T03:04:30;-1.80;99.90
9730;DHT22;4904;49.152;11.004;2023-02-28T03:06:58;-1.90;99.90
9730;DHT22;4904;49.152;11.004;2023-02-28T03:09:25;-1.90;99.90
9730;DHT22;4904;49.152;11.004;2023-02-28T03:11:55;-1.90;99.90
9730;DHT22;4904;49.152;11.004;2023-02-28T03:14:34;-1.90;99.90
9730;DHT22;4904;49.152;11.004;2023-02-28T03:17:30;-2.00;99.90
9730;DHT22;4904;49.152;11.004;2023-02-28T03:20:07;-2.10;99.90
9730;DHT22;4904;49.152;11.004;2023-02-28T03:22:46;-2.10;99.90
9730;DHT22;4904;49.152;11.004;2023-02-28T03:25:21;-2.00;99.90
9730;DHT22;4904;49.152;11.004;2023-02-28T03:27:56;-2.10;99.90
9730;DHT22;4904;49.152;11.004;2023-02-28T03:30:29;-2.10;99.90
9730;DHT22;4904;49.152;11.004;2023-02-28T03:33:03;-2.00;99.90
9730;DHT22;4904;49.152;11.004;2023-02-28T03:35:36;-2.00;99.90
9730;DHT22;4904;49.152;11.004;2023-02-28T03:38:09;-2.10;99.90
9730;DHT22;4904;49.152;11.004;2023-02-28T03:40:44;-2.10;99.90
9730;DHT22;4904;49.152;11.004;2023-02-28T03:43:20;-2.20;99.90
9730;DHT22;4904;49.152;11.004;2023-02-28T03:45:50;-2.20;99.90
9730;DHT22;4904;49.152;11.004;2023-02-28T03:48:21;-2.20;99.90
9730;DHT22;4904;49.152;11.004;2023-02-28T03:50:52;-2.10;99.90
9730;DHT22;4904;49.152;11.004;2023-02-28T03:53:25;-2.20;99.90
9730;DHT22;4904;49.152;11.004;2023-02-28T03:55:54;-2.20;99.90
9730;DHT22;4904;49.152;11.004;2023-02-28T03:58:28;-2.20;99.90
9730;DHT22;4904;49.152;11.004;2023-02-28T04:01:00;-2.20;99.90
9730;DHT22;4904;49.152;11.004;2023-02-28T04:03:34;-2.20;99.90
9730;DHT22;4904;49.152;11.004;2023-02-28T04:06:03;-2.20;99.90
9730;DHT22;4904;49.152;11.004;2023-02-28T04:08:30;-2.20;99.90
9730;DHT22;4904;49.152;11.004;2023-02-28T04:11:02;-2.20;99.90
9730;DHT22;4904;49.152;11.004;2023-02-28T04:13:31;-2.20;99.90
9730;DHT22;4904;49.152;11.004;2023-02-28T04:15:58;-2.20;99.90
9730;DHT22;4904;49.152;11.004;2023-02-28T04:18:25;-2.10;99.90
9730;DHT22;4904;49.152;11.004;2023-02-28T04:20:52;-2.10;99.90
9730;DHT22;4904;49.152;11.004;2023-02-28T04:23:20;-2.10;99.90
9730;DHT22;4904;49.152;11.004;2023-02-28T04:25:47;-2.00;99.90
9730;DHT22;4904;49.152;11.004;2023-02-28T04:28:15;-2.00;99.90
9730;DHT22;4904;49.152;11.004;2023-02-28T04:30:41;-1.10;99.90
9730;DHT22;4904;49.152;11.004;2023-02-28T04:33:08;-2.10;99.90
9730;DHT22;4904;49.152;11.004;2023-02-28T04:35:35;-2.10;99.90
9730;DHT22;4904;49.152;11.004;2023-02-28T04:38:02;-2.00;99.90
9730;DHT22;4904;49.152;11.004;2023-02-28T04:40:30;-2.10;99.90
9730;DHT22;4904;49.152;11.004;2023-02-28T04:42:57;-2.10;99.90
9730;DHT22;4904;49.152;11.004;2023-02-28T04:45:24;-2.10;99.90
9730;DHT22;4904;49.152;11.004;2023-02-28T04:47:51;-2.00;99.90
9730;DHT22;4904;49.152;11.004;2023-02-28T04:50:19;-2.10;99.90
9730;DHT22;4904;49.152;11.004;2023-02-28T04:52:45;-2.10;99.90
9730;DHT22;4904;49.152;11.004;2023-02-28T04:55:12;-2.00;99.90
9730;DHT22;4904;49.152;11.004;2023-02-28T04:57:42;-2.10;99.90
9730;DHT22;4904;49.152;11.004;2023-02-28T05:00:10;-2.00;99.90
9730;DHT22;4904;49.152;11.004;2023-02-28T05:02:38;-2.00;99.90
9730;DHT22;4904;49.152;11.004;2023-02-28T05:05:05;-2.00;99.90
9730;DHT22;4904;49.152;11.004;2023-02-28T05:07:32;-2.00;99.90
9730;DHT22;4904;49.152;11.004;2023-02-28T05:09:59;-2.00;99.90
9730;DHT22;4904;49.152;11.004;2023-02-28T05:12:27;-2.00;99.90
9730;DHT22;4904;49.152;11.004;2023-02-28T05:14:55;-2.00;99.90
9730;DHT22;4904;49.152;11.004;2023-02-28T05:17:22;-2.00;99.90
9730;DHT22;4904;49.152;11.004;2023-02-28T05:19:48;-2.00;99.90
9730;DHT22;4904;49.152;11.004;2023-02-28T05:22:17;-2.00;99.90
9730;DHT22;4904;49.152;11.004;2023-02-28T05:24:43;-1.90;99.90
9730;DHT22;4904;49.152;11.004;2023-02-28T05:27:10;-1.90;99.90
9730;DHT22;4904;49.152;11.004;2023-02-28T05:29:37;-2.00;99.90
9730;DHT22;4904;49.152;11.004;2023-02-28T05:32:10;-2.00;99.90
9730;DHT22;4904;49.152;11.004;2023-02-28T05:34:37;-2.00;99.90
9730;DHT22;4904;49.152;11.004;2023-02-28T05:37:04;-2.00;99.90
9730;DHT22;4904;49.152;11.004;2023-02-28T05:39:31;-2.00;99.90
9730;DHT22;4904;49.152;11.004;2023-02-28T05:41:58;-2.10;99.90
9730;DHT22;4904;49.152;11.004;2023-02-28T05:44:25;-2.10;99.90
9730;DHT22;4904;49.152;11.004;2023-02-28T05:46:52;-2.10;99.90
9730;DHT22;4904;49.152;11.004;2023-02-28T05:49:20;-2.10;99.90
9730;DHT22;4904;49.152;11.004;2023-02-28T05:51:47;-2.20;99.90
9730;DHT22;4904;49.152;11.004;2023-02-28T05:54:14;-2.20;99.90
9730;DHT22;4904;49.152;11.004;2023-02-28T05:56:41;-2.10;99.90
9730;DHT22;4904;49.152;11.004;2023-02-28T05:59:09;-2.10;99.90
9730;DHT22;4904;49.152;11.004;2023-02-28T06:01:41;-2.10;99.90
9730;DHT22;4904;49.152;11.004;2023-02-28T06:04:10;-2.10;99.90
9730;DHT22;4904;49.152;11.004;2023-02-28T06:06:40;-2.10;99.90
9730;DHT22;4904;49.152;11.004;2023-02-28T06:09:07;-2.10;99.90
9730;DHT22;4904;49.152;11.004;2023-02-28T06:11:35;-2.00;99.90
9730;DHT22;4904;49.152;11.004;2023-02-28T06:14:03;-2.00;99.90
9730;DHT22;4904;49.152;11.004;2023-02-28T06:16:31;-2.10;99.90
9730;DHT22;4904;49.152;11.004;2023-02-28T06:19:00;-2.10;99.90
9730;DHT22;4904;49.152;11.004;2023-02-28T06:21:28;-2.10;99.90
9730;DHT22;4904;49.152;11.004;2023-02-28T06:23:57;-2.10;99.90
9730;DHT22;4904;49.152;11.004;2023-02-28T06:26:25;-2.10;99.90
9730;DHT22;4904;49.152;11.004;2023-02-28T06:28:53;-2.10;99.90
9730;DHT22;4904;49.152;11.004;2023-02-28T06:31:20;-2.10;99.90
9730;DHT22;4904;49.152;11.004;2023-02-28T06:33:48;-2.10;99.90
9730;DHT22;4904;49.152;11.004;2023-02-28T06:36:16;-2.00;99.90
9730;DHT22;4904;49.152;11.004;2023-02-28T06:38:43;-2.00;99.90
9730;DHT22;4904;49.152;11.004;2023-02-28T06:41:11;-1.90;99.90
9730;DHT22;4904;49.152;11.004;2023-02-28T06:43:40;-1.90;99.90
9730;DHT22;4904;49.152;11.004;2023-02-28T06:46:11;-1.80;99.90
9730;DHT22;4904;49.152;11.004;2023-02-28T06:48:38;-1.90;99.90
9730;DHT22;4904;49.152;11.004;2023-02-28T06:51:07;-1.80;99.90
9730;DHT22;4904;49.152;11.004;2023-02-28T06:53:35;-1.80;99.90
9730;DHT22;4904;49.152;11.004;2023-02-28T06:56:04;-1.70;99.90
9730;DHT22;4904;49.152;11.004;2023-02-28T06:58:33;-1.70;99.90
9730;DHT22;4904;49.152;11.004;2023-02-28T07:01:00;-1.60;99.90
9730;DHT22;4904;49.152;11.004;2023-02-28T07:03:27;-1.50;99.90
9730;DHT22;4904;49.152;11.004;2023-02-28T07:05:54;-1.50;99.90
9730;DHT22;4904;49.152;11.004;2023-02-28T07:08:22;-1.30;99.90
9730;DHT22;4904;49.152;11.004;2023-02-28T07:10:51;-1.50;99.90
9730;DHT22;4904;49.152;11.004;2023-02-28T07:13:18;-1.50;99.90
9730;DHT22;4904;49.152;11.004;2023-02-28T07:15:55;-1.40;99.90
9730;DHT22;4904;49.152;11.004;2023-02-28T07:18:22;-1.30;99.90
9730;DHT22;4904;49.152;11.004;2023-02-28T07:20:49;-1.30;99.90
9730;DHT22;4904;49.152;11.004;2023-02-28T07:23:16;-1.20;99.90
9730;DHT22;4904;49.152;11.004;2023-02-28T07:25:43;-1.20;99.90
9730;DHT22;4904;49.152;11.004;2023-02-28T07:28:11;-1.10;99.90
9730;DHT22;4904;49.152;11.004;2023-02-28T07:30:38;-1.10;99.90
9730;DHT22;4904;49.152;11.004;2023-02-28T07:33:07;-1.00;99.90
9730;DHT22;4904;49.152;11.004;2023-02-28T07:35:34;-1.00;99.90
9730;DHT22;4904;49.152;11.004;2023-02-28T07:38:00;-0.90;99.90
9730;DHT22;4904;49.152;11.004;2023-02-28T07:40:28;-0.80;99.90
9730;DHT22;4904;49.152;11.004;2023-02-28T07:42:55;-0.70;99.90
9730;DHT22;4904;49.152;11.004;2023-02-28T07:45:22;-0.60;99.90
9730;DHT22;4904;49.152;11.004;2023-02-28T07:47:48;-0.50;99.90
9730;DHT22;4904;49.152;11.004;2023-02-28T07:50:17;-0.40;99.90
9730;DHT22;4904;49.152;11.004;2023-02-28T07:52:44;-0.40;99.90
9730;DHT22;4904;49.152;11.004;2023-02-28T07:55:11;-0.30;99.90
9730;DHT22;4904;49.152;11.004;2023-02-28T07:57:39;-0.10;99.90
9730;DHT22;4904;49.152;11.004;2023-02-28T08:00:09;-0.10;99.90
9730;DHT22;4904;49.152;11.004;2023-02-28T08:02:38;-0.10;99.90
9730;DHT22;4904;49.152;11.004;2023-02-28T08:05:05;0.00;99.90
9730;DHT22;4904;49.152;11.004;2023-02-28T08:07:34;0.00;99.90
9730;DHT22;4904;49.152;11.004;2023-02-28T08:10:01;0.00;99.90
9730;DHT22;4904;49.152;11.004;2023-02-28T08:12:27;0.00;99.90
9730;DHT22;4904;49.152;11.004;2023-02-28T08:14:54;0.00;99.90
9730;DHT22;4904;49.152;11.004;2023-02-28T08:17:21;0.10;99.90
9730;DHT22;4904;49.152;11.004;2023-02-28T08:19:48;0.20;99.90
9730;DHT22;4904;49.152;11.004;2023-02-28T08:22:16;0.20;99.90
9730;DHT22;4904;49.152;11.004;2023-02-28T08:24:44;0.30;99.90
9730;DHT22;4904;49.152;11.004;2023-02-28T08:27:11;0.30;99.90
9730;DHT22;4904;49.152;11.004;2023-02-28T08:29:39;0.30;99.90
9730;DHT22;4904;49.152;11.004;2023-02-28T08:32:06;0.40;99.90
9730;DHT22;4904;49.152;11.004;2023-02-28T08:34:33;0.40;99.90
9730;DHT22;4904;49.152;11.004;2023-02-28T08:37:00;0.50;99.90
9730;DHT22;4904;49.152;11.004;2023-02-28T08:39:27;0.60;99.90
9730;DHT22;4904;49.152;11.004;2023-02-28T08:41:55;0.70;99.90
9730;DHT22;4904;49.152;11.004;2023-02-28T08:44:22;0.70;99.90
9730;DHT22;4904;49.152;11.004;2023-02-28T08:46:49;0.80;99.90
9730;DHT22;4904;49.152;11.004;2023-02-28T08:49:16;0.90;99.90
9730;DHT22;4904;49.152;11.004;2023-02-28T08:51:43;0.90;99.90
9730;DHT22;4904;49.152;11.004;2023-02-28T08:54:10;1.00;99.90
9730;DHT22;4904;49.152;11.004;2023-02-28T08:56:38;1.00;99.90
9730;DHT22;4904;49.152;11.004;2023-02-28T08:59:08;1.10;99.90
9730;DHT22;4904;49.152;11.004;2023-02-28T09:01:35;1.10;99.90
9730;DHT22;4904;49.152;11.004;2023-02-28T09:04:02;1.20;99.90
9730;DHT22;4904;49.152;11.004;2023-02-28T09:06:30;1.20;99.90
9730;DHT22;4904;49.152;11.004;2023-02-28T09:08:59;1.30;99.90
9730;DHT22;4904;49.152;11.004;2023-02-28T09:11:27;1.30;99.90
9730;DHT22;4904;49.152;11.004;2023-02-28T09:13:54;1.40;99.90
9730;DHT22;4904;49.152;11.004;2023-02-28T09:16:23;1.50;99.90
9730;DHT22;4904;49.152;11.004;2023-02-28T09:18:50;1.50;99.90
9730;DHT22;4904;49.152;11.004;2023-02-28T09:21:19;1.60;99.90
9730;DHT22;4904;49.152;11.004;2023-02-28T09:23:47;1.70;99.90
9730;DHT22;4904;49.152;11.004;2023-02-28T09:26:15;1.70;99.90
9730;DHT22;4904;49.152;11.004;2023-02-28T09:28:42;1.90;99.90
9730;DHT22;4904;49.152;11.004;2023-02-28T09:31:12;1.90;99.90
9730;DHT22;4904;49.152;11.004;2023-02-28T09:33:41;2.00;99.90
9730;DHT22;4904;49.152;11.004;2023-02-28T09:36:08;2.10;99.90
9730;DHT22;4904;49.152;11.004;2023-02-28T09:38:35;2.20;99.90
9730;DHT22;4904;49.152;11.004;2023-02-28T09:41:04;2.20;99.90
9730;DHT22;4904;49.152;11.004;2023-02-28T09:43:38;2.30;99.90
9730;DHT22;4904;49.152;11.004;2023-02-28T09:46:14;2.40;99.90
9730;DHT22;4904;49.152;11.004;2023-02-28T09:48:47;2.50;99.90
9730;DHT22;4904;49.152;11.004;2023-02-28T09:51:27;2.60;99.90
9730;DHT22;4904;49.152;11.004;2023-02-28T09:53:54;2.50;99.90
9730;DHT22;4904;49.152;11.004;2023-02-28T09:56:24;2.70;99.90
9730;DHT22;4904;49.152;11.004;2023-02-28T09:58:57;2.70;99.90
9730;DHT22;4904;49.152;11.004;2023-02-28T10:01:33;2.70;99.90
9730;DHT22;4904;49.152;11.004;2023-02-28T10:04:10;2.90;99.90
9730;DHT22;4904;49.152;11.004;2023-02-28T10:06:46;2.80;99.90
9730;DHT22;4904;49.152;11.004;2023-02-28T10:09:17;2.80;99.90
9730;DHT22;4904;49.152;11.004;2023-02-28T10:11:46;2.80;99.90
9730;DHT22;4904;49.152;11.004;2023-02-28T10:14:15;2.80;99.90
9730;DHT22;4904;49.152;11.004;2023-02-28T10:16:46;2.90;99.90
9730;DHT22;4904;49.152;11.004;2023-02-28T10:19:22;3.10;99.90
9730;DHT22;4904;49.152;11.004;2023-02-28T10:21:56;3.20;99.90
9730;DHT22;4904;49.152;11.004;2023-02-28T10:24:32;3.20;99.90
9730;DHT22;4904;49.152;11.004;2023-02-28T10:27:05;3.30;99.90
9730;DHT22;4904;49.152;11.004;2023-02-28T10:29:41;3.20;99.90
9730;DHT22;4904;49.152;11.004;2023-02-28T10:32:11;3.30;99.90
9730;DHT22;4904;49.152;11.004;2023-02-28T10:34:40;3.30;99.90
9730;DHT22;4904;49.152;11.004;2023-02-28T10:37:07;3.40;99.90
9730;DHT22;4904;49.152;11.004;2023-02-28T10:39:36;3.50;99.90
9730;DHT22;4904;49.152;11.004;2023-02-28T10:42:04;3.30;99.90
9730;DHT22;4904;49.152;11.004;2023-02-28T10:44:32;3.40;99.90
9730;DHT22;4904;49.152;11.004;2023-02-28T10:46:59;3.60;99.90
9730;DHT22;4904;49.152;11.004;2023-02-28T10:49:27;3.70;99.90
9730;DHT22;4904;49.152;11.004;2023-02-28T10:51:57;3.80;99.90
9730;DHT22;4904;49.152;11.004;2023-02-28T10:54:27;3.90;99.90
9730;DHT22;4904;49.152;11.004;2023-02-28T10:57:15;3.90;99.90
9730;DHT22;4904;49.152;11.004;2023-02-28T10:59:43;3.80;99.90
9730;DHT22;4904;49.152;11.004;2023-02-28T11:02:29;3.80;99.90
9730;DHT22;4904;49.152;11.004;2023-02-28T11:04:56;3.90;99.90
9730;DHT22;4904;49.152;11.004;2023-02-28T11:07:26;4.20;99.90
9730;DHT22;4904;49.152;11.004;2023-02-28T11:09:54;4.20;99.90
9730;DHT22;4904;49.152;11.004;2023-02-28T11:12:25;4.40;99.90
9730;DHT22;4904;49.152;11.004;2023-02-28T11:14:55;4.30;99.90
9730;DHT22;4904;49.152;11.004;2023-02-28T11:17:24;4.50;99.90
9730;DHT22;4904;49.152;11.004;2023-02-28T11:19:54;4.50;99.90
9730;DHT22;4904;49.152;11.004;2023-02-28T11:22:26;4.60;99.90
9730;DHT22;4904;49.152;11.004;2023-02-28T11:24:56;4.60;99.90
9730;DHT22;4904;49.152;11.004;2023-02-28T11:27:46;4.60;99.90
9730;DHT22;4904;49.152;11.004;2023-02-28T11:30:28;4.70;99.90
9730;DHT22;4904;49.152;11.004;2023-02-28T11:32:55;4.80;99.90
9730;DHT22;4904;49.152;11.004;2023-02-28T11:35:26;4.70;99.90
9730;DHT22;4904;49.152;11.004;2023-02-28T11:37:55;4.80;99.90
9730;DHT22;4904;49.152;11.004;2023-02-28T11:40:28;5.00;99.90
9730;DHT22;4904;49.152;11.004;2023-02-28T11:43:06;4.90;99.90
9730;DHT22;4904;49.152;11.004;2023-02-28T11:45:44;5.10;99.90
9730;DHT22;4904;49.152;11.004;2023-02-28T11:48:17;5.10;99.90
9730;DHT22;4904;49.152;11.004;2023-02-28T11:50:57;5.00;99.90
9730;DHT22;4904;49.152;11.004;2023-02-28T11:53:49;5.10;99.90
9730;DHT22;4904;49.152;11.004;2023-02-28T11:56:22;5.20;99.90
9730;DHT22;4904;49.152;11.004;2023-02-28T11:58:58;5.20;99.90
9730;DHT22;4904;49.152;11.004;2023-02-28T12:01:36;5.20;99.90
9730;DHT22;4904;49.152;11.004;2023-02-28T12:04:17;5.20;99.90
9730;DHT22;4904;49.152;11.004;2023-02-28T12:06:51;5.20;99.90
9730;DHT22;4904;49.152;11.004;2023-02-28T12:09:39;5.20;99.90
9730;DHT22;4904;49.152;11.004;2023-02-28T12:12:21;5.30;99.90
9730;DHT22;4904;49.152;11.004;2023-02-28T12:17:55;5.00;99.90
9730;DHT22;4904;49.152;11.004;2023-02-28T12:20:33;5.20;99.90
9730;DHT22;4904;49.152;11.004;2023-02-28T12:23:17;5.00;99.90
9730;DHT22;4904;49.152;11.004;2023-02-28T12:25:58;5.10;99.90
9730;DHT22;4904;49.152;11.004;2023-02-28T12:28:32;5.40;99.90
9730;DHT22;4904;49.152;11.004;2023-02-28T12:31:03;5.60;99.90
9730;DHT22;4904;49.152;11.004;2023-02-28T12:33:35;5.70;99.90
9730;DHT22;4904;49.152;11.004;2023-02-28T12:36:08;5.70;99.90
9730;DHT22;4904;49.152;11.004;2023-02-28T12:38:41;5.70;99.90
9730;DHT22;4904;49.152;11.004;2023-02-28T12:41:14;5.70;99.90
9730;DHT22;4904;49.152;11.004;2023-02-28T12:43:46;5.80;99.90
9730;DHT22;4904;49.152;11.004;2023-02-28T12:46:18;5.90;99.90
9730;DHT22;4904;49.152;11.004;2023-02-28T12:48:48;6.00;99.90
9730;DHT22;4904;49.152;11.004;2023-02-28T12:51:17;5.90;99.90
9730;DHT22;4904;49.152;11.004;2023-02-28T12:53:56;5.90;99.90
9730;DHT22;4904;49.152;11.004;2023-02-28T12:56:34;6.10;99.90
9730;DHT22;4904;49.152;11.004;2023-02-28T12:59:09;6.30;99.90
9730;DHT22;4904;49.152;11.004;2023-02-28T13:01:45;6.50;99.90
9730;DHT22;4904;49.152;11.004;2023-02-28T13:04:45;6.60;99.90
9730;DHT22;4904;49.152;11.004;2023-02-28T13:10:13;6.80;99.90
9730;DHT22;4904;49.152;11.004;2023-02-28T13:12:49;7.00;99.90
9730;DHT22;4904;49.152;11.004;2023-02-28T13:15:19;7.30;99.90
9730;DHT22;4904;49.152;11.004;2023-02-28T13:17:51;7.30;99.90
9730;DHT22;4904;49.152;11.004;2023-02-28T13:20:19;7.20;99.90
9730;DHT22;4904;49.152;11.004;2023-02-28T13:22:50;7.10;99.90
9730;DHT22;4904;49.152;11.004;2023-02-28T13:25:51;7.10;99.90
9730;DHT22;4904;49.152;11.004;2023-02-28T13:34:39;7.30;99.90
9730;DHT22;4904;49.152;11.004;2023-02-28T13:37:32;7.20;99.90
9730;DHT22;4904;49.152;11.004;2023-02-28T13:42:49;7.00;99.90
9730;DHT22;4904;49.152;11.004;2023-02-28T13:45:23;7.10;99.90
9730;DHT22;4904;49.152;11.004;2023-02-28T13:48:01;7.10;99.90
9730;DHT22;4904;49.152;11.004;2023-02-28T13:50:32;7.30;99.90
9730;DHT22;4904;49.152;11.004;2023-02-28T13:53:24;7.50;99.90
9730;DHT22;4904;49.152;11.004;2023-02-28T13:55:58;7.70;99.90
9730;DHT22;4904;49.152;11.004;2023-02-28T13:58:39;7.80;99.90
9730;DHT22;4904;49.152;11.004;2023-02-28T14:01:46;7.80;99.90
9730;DHT22;4904;49.152;11.004;2023-02-28T14:04:46;7.90;99.90
9730;DHT22;4904;49.152;11.004;2023-02-28T14:07:20;8.10;99.90
9730;DHT22;4904;49.152;11.004;2023-02-28T14:09:55;8.00;99.90
9730;DHT22;4904;49.152;11.004;2023-02-28T14:12:54;8.00;99.90
9730;DHT22;4904;49.152;11.004;2023-02-28T14:18:27;8.20;99.90
9730;DHT22;4904;49.152;11.004;2023-02-28T14:21:01;8.20;99.90
9730;DHT22;4904;49.152;11.004;2023-02-28T14:23:49;8.30;99.90
9730;DHT22;4904;49.152;11.004;2023-02-28T14:26:33;8.50;99.90
9730;DHT22;4904;49.152;11.004;2023-02-28T14:29:36;8.70;99.90
9730;DHT22;4904;49.152;11.004;2023-02-28T14:32:11;8.90;99.90
9730;DHT22;4904;49.152;11.004;2023-02-28T14:34:43;9.00;99.90
9730;DHT22;4904;49.152;11.004;2023-02-28T14:37:20;9.20;99.90
9730;DHT22;4904;49.152;11.004;2023-02-28T14:39:47;9.00;99.90
9730;DHT22;4904;49.152;11.004;2023-02-28T14:42:33;8.70;99.90
9730;DHT22;4904;49.152;11.004;2023-02-28T14:45:00;8.80;99.90
9730;DHT22;4904;49.152;11.004;2023-02-28T14:47:30;9.10;99.90
9730;DHT22;4904;49.152;11.004;2023-02-28T14:49:59;9.40;99.90
9730;DHT22;4904;49.152;11.004;2023-02-28T14:52:29;9.90;99.90
9730;DHT22;4904;49.152;11.004;2023-02-28T14:54:58;10.30;99.90
9730;DHT22;4904;49.152;11.004;2023-02-28T14:57:27;10.50;99.90
9730;DHT22;4904;49.152;11.004;2023-02-28T14:59:59;10.70;99.90
9730;DHT22;4904;49.152;11.004;2023-02-28T15:02:30;11.30;99.90
9730;DHT22;4904;49.152;11.004;2023-02-28T15:05:00;11.80;99.90
9730;DHT22;4904;49.152;11.004;2023-02-28T15:07:28;12.00;99.90
9730;DHT22;4904;49.152;11.004;2023-02-28T15:10:15;12.30;99.90
9730;DHT22;4904;49.152;11.004;2023-02-28T15:12:49;11.90;99.90
9730;DHT22;4904;49.152;11.004;2023-02-28T15:15:18;11.40;99.90
9730;DHT22;4904;49.152;11.004;2023-02-28T15:17:49;10.80;99.90
9730;DHT22;4904;49.152;11.004;2023-02-28T15:20:18;11.20;99.90
9730;DHT22;4904;49.152;11.004;2023-02-28T15:22:47;11.30;99.90
9730;DHT22;4904;49.152;11.004;2023-02-28T15:25:19;11.10;99.90
9730;DHT22;4904;49.152;11.004;2023-02-28T15:27:48;11.20;99.90
9730;DHT22;4904;49.152;11.004;2023-02-28T15:30:19;10.80;99.90
9730;DHT22;4904;49.152;11.004;2023-02-28T15:33:03;10.70;99.90
9730;DHT22;4904;49.152;11.004;2023-02-28T15:35:32;10.80;99.90
9730;DHT22;4904;49.152;11.004;2023-02-28T15:38:02;10.80;99.90
9730;DHT22;4904;49.152;11.004;2023-02-28T15:40:32;10.90;99.90
9730;DHT22;4904;49.152;11.004;2023-02-28T15:43:06;10.80;99.90
9730;DHT22;4904;49.152;11.004;2023-02-28T15:45:39;10.60;99.90
9730;DHT22;4904;49.152;11.004;2023-02-28T15:48:16;9.90;99.90
9730;DHT22;4904;49.152;11.004;2023-02-28T15:50:44;9.80;99.90
9730;DHT22;4904;49.152;11.004;2023-02-28T15:53:17;9.70;99.90
9730;DHT22;4904;49.152;11.004;2023-02-28T15:55:53;10.10;99.90
9730;DHT22;4904;49.152;11.004;2023-02-28T15:58:21;10.40;99.90
9730;DHT22;4904;49.152;11.004;2023-02-28T16:01:01;10.10;99.90
9730;DHT22;4904;49.152;11.004;2023-02-28T16:03:39;10.10;99.90
9730;DHT22;4904;49.152;11.004;2023-02-28T16:06:26;9.60;99.90
9730;DHT22;4904;49.152;11.004;2023-02-28T16:08:54;8.80;99.90
9730;DHT22;4904;49.152;11.004;2023-02-28T16:11:22;9.00;99.90
9730;DHT22;4904;49.152;11.004;2023-02-28T16:13:50;9.20;99.90
9730;DHT22;4904;49.152;11.004;2023-02-28T16:16:18;9.20;99.90
9730;DHT22;4904;49.152;11.004;2023-02-28T16:18:46;9.30;99.90
9730;DHT22;4904;49.152;11.004;2023-02-28T16:21:13;8.90;99.90
9730;DHT22;4904;49.152;11.004;2023-02-28T16:23:40;8.90;99.90
9730;DHT22;4904;49.152;11.004;2023-02-28T16:26:12;8.70;99.90
9730;DHT22;4904;49.152;11.004;2023-02-28T16:28:43;8.50;99.90
9730;DHT22;4904;49.152;11.004;2023-02-28T16:31:11;8.30;99.90
9730;DHT22;4904;49.152;11.004;2023-02-28T16:33:42;8.10;99.90
9730;DHT22;4904;49.152;11.004;2023-02-28T16:36:13;8.20;99.90
9730;DHT22;4904;49.152;11.004;2023-02-28T16:38:40;8.10;99.90
9730;DHT22;4904;49.152;11.004;2023-02-28T16:41:12;7.90;99.90